createdAt,value
2023-02-07T00:01:49.786Z,70.43441
2023-02-07T00:06:51.473Z,70.9333
2023-02-07T00:11:53.105Z,73.09833
2023-02-07T00:16:54.727Z,71.33836
2023-02-07T00:21:56.582Z,72.24959
2023-02-07T00:26:58.191Z,70.38489
2023-02-07T00:31:59.894Z,70.75056
2023-02-07T00:37:01.685Z,72.66227
2023-02-07T00:42:03.346Z,72.80978
2023-02-07T00:47:04.959Z,70.27108
2023-02-07T00:52:06.526Z,70.53615
2023-02-07T00:57:08.159Z,70.43473
2023-02-07T01:02:09.812Z,71.89321
2023-02-07T01:07:11.440Z,71.63785
2023-02-07T01:12:13.119Z,70.23265
2023-02-07T01:17:14.750Z,72.54426
2023-02-07T01:22:16.445Z,72.87574
2023-02-07T01:27:18.090Z,72.25179
2023-02-07T01:32:19.817Z,71.48197
2023-02-07T01:37:21.575Z,71.3338
2023-02-07T01:42:23.186Z,71.63225
2023-02-07T01:47:24.949Z,73.72216
2023-02-07T01:52:26.596Z,71.72068
2023-02-07T01:57:28.292Z,73.37232
2023-02-07T02:02:29.969Z,73.81876
2023-02-07T02:07:31.648Z,73.74318
2023-02-07T02:12:33.314Z,73.40068
2023-02-07T02:17:34.928Z,73.8645
2023-02-07T02:22:36.635Z,73.91728
2023-02-07T02:27:38.450Z,71.76321
2023-02-07T02:32:40.077Z,72.93611
2023-02-07T02:37:41.717Z,73.52559
2023-02-07T02:42:43.435Z,73.45813
2023-02-07T02:47:45.265Z,72.85034
2023-02-07T02:52:50.957Z,70.25406
2023-02-07T02:57:53.799Z,71.10096
2023-02-07T03:02:55.474Z,71.86556
2023-02-07T03:07:57.109Z,71.57939
2023-02-07T03:12:58.868Z,71.35483
2023-02-07T03:18:00.510Z,71.74883
2023-02-07T03:23:02.239Z,68.48991
2023-02-07T03:28:04.040Z,70.36159
2023-02-07T03:33:05.754Z,69.44732
2023-02-07T03:38:07.481Z,67.96301
2023-02-07T03:43:09.160Z,67.2613
2023-02-07T03:48:11.038Z,67.35129
2023-02-07T03:53:12.878Z,69.02647
2023-02-07T03:58:14.536Z,72.8319
2023-02-07T04:03:16.218Z,71.09393
2023-02-07T04:08:18.153Z,71.91948
2023-02-07T04:13:20.147Z,69.70225
2023-02-07T04:18:21.973Z,69.60458
2023-02-07T04:23:23.691Z,68.77373
2023-02-07T04:28:25.393Z,68.45423
2023-02-07T04:33:27.088Z,68.17192
2023-02-07T04:38:28.746Z,68.72276
2023-02-07T04:43:30.524Z,68.80538
2023-02-07T04:48:32.254Z,69.28573
2023-02-07T04:53:33.921Z,69.8521
2023-02-07T04:58:35.613Z,71.0948
2023-02-07T05:03:37.303Z,71.72378
2023-02-07T05:08:38.931Z,72.18712
2023-02-07T05:13:40.545Z,72.88581
2023-02-07T05:18:42.229Z,71.60736
2023-02-07T05:23:43.901Z,73.91526
2023-02-07T05:28:46.503Z,70.93381
2023-02-07T05:33:48.091Z,71.05024
2023-02-07T05:38:49.733Z,73.12757
2023-02-07T05:43:51.507Z,72.73498
2023-02-07T05:48:53.367Z,73.77397
2023-02-07T05:53:55.062Z,76.78231
2023-02-07T05:58:56.707Z,74.7909
2023-02-07T06:03:58.913Z,74.25257
2023-02-07T06:09:00.568Z,71.46949
2023-02-07T06:14:02.275Z,71.25292
2023-02-07T06:19:03.950Z,71.74981
2023-02-07T06:24:05.684Z,72.92936
2023-02-07T06:29:07.342Z,70.51198
2023-02-07T06:34:08.960Z,73.41024
2023-02-07T06:39:10.627Z,73.05924
2023-02-07T06:44:12.275Z,74.82139
2023-02-07T06:49:14.047Z,72.43322
2023-02-07T06:54:15.715Z,74.44357
2023-02-07T06:59:17.394Z,73.7775
2023-02-07T07:04:19.096Z,72.83976
2023-02-07T07:09:20.687Z,72.43023
2023-02-07T07:14:22.415Z,73.72224
2023-02-07T07:19:24.046Z,75.5421
2023-02-07T07:24:25.867Z,74.39203
2023-02-07T07:29:27.492Z,76.99922
2023-02-07T07:34:29.100Z,77.26077
2023-02-07T07:39:30.967Z,74.78336
2023-02-07T07:44:32.649Z,74.23505
2023-02-07T07:49:34.306Z,75.94332
2023-02-07T07:54:35.981Z,73.15062
2023-02-07T07:59:37.642Z,72.304
2023-02-07T08:04:39.244Z,75.84501
2023-02-07T08:09:40.924Z,74.71185
2023-02-07T08:14:42.662Z,73.13697
2023-02-07T08:19:44.274Z,73.5919
2023-02-07T08:24:45.966Z,73.2482
2023-02-07T08:29:47.692Z,73.66853
2023-02-07T08:34:49.371Z,74.87075
2023-02-07T08:39:51.016Z,73.11346
2023-02-07T08:44:52.910Z,74.67239
2023-02-07T08:49:54.547Z,76.27827
2023-02-07T08:54:56.145Z,74.32323
2023-02-07T08:59:58.129Z,72.49604
2023-02-07T09:04:59.835Z,72.8247
2023-02-07T09:10:01.441Z,74.79202
2023-02-07T09:15:03.125Z,72.74379
2023-02-07T09:20:04.862Z,72.71149
2023-02-07T09:25:06.506Z,74.15751
2023-02-07T09:30:08.313Z,74.36785
2023-02-07T09:35:10.023Z,77.36461
2023-02-07T09:40:11.613Z,73.95377
2023-02-07T09:45:13.483Z,73.1654
2023-02-07T09:50:15.183Z,73.22505
2023-02-07T09:55:16.784Z,75.65063
2023-02-07T10:00:18.557Z,74.40854
2023-02-07T10:05:20.240Z,74.80724
2023-02-07T10:10:22.146Z,73.45924
2023-02-07T10:15:23.781Z,73.16108
2023-02-07T10:20:25.388Z,73.73428
2023-02-07T10:25:26.993Z,73.30207
2023-02-07T10:30:28.682Z,73.8115
2023-02-07T10:35:30.410Z,72.76218
2023-02-07T10:40:32.081Z,72.73881
2023-02-07T10:45:33.845Z,75.10444
2023-02-07T10:50:35.480Z,77.48233
2023-02-07T10:55:37.412Z,76.74125
2023-02-07T11:00:39.272Z,74.45472
2023-02-07T11:05:41.317Z,75.11642
2023-02-07T11:10:43.079Z,76.07383
2023-02-07T11:15:44.718Z,76.1607
2023-02-07T11:20:46.519Z,76.72287
2023-02-07T11:25:48.510Z,80.77971
2023-02-07T11:30:50.251Z,78.18605
2023-02-07T11:35:51.963Z,77.83411
2023-02-07T11:40:53.587Z,76.89799
2023-02-07T11:45:55.214Z,78.42736
2023-02-07T11:50:56.970Z,78.30506
2023-02-07T11:55:58.852Z,79.81187
2023-02-07T12:01:00.527Z,78.19694
2023-02-07T12:06:02.192Z,76.60261
2023-02-07T12:11:03.815Z,75.14443
2023-02-07T12:16:05.558Z,76.49937
2023-02-07T12:21:07.292Z,74.9381
2023-02-07T12:26:08.907Z,74.09719
2023-02-07T12:31:10.752Z,73.06684
2023-02-07T12:36:12.586Z,73.48711
2023-02-07T12:41:14.238Z,75.01498
2023-02-07T12:46:15.894Z,75.68775
2023-02-07T12:51:17.539Z,74.66611
2023-02-07T12:56:19.275Z,74.33937
2023-02-07T13:01:21.235Z,75.56835
2023-02-07T13:06:22.950Z,75.27515
2023-02-07T13:11:24.669Z,79.09596
2023-02-07T13:16:26.329Z,76.74449
2023-02-07T13:21:27.996Z,78.48186
2023-02-07T13:26:29.573Z,78.0238
2023-02-07T13:31:31.317Z,79.70644
2023-02-07T13:36:33.026Z,80.75299
2023-02-07T13:41:34.727Z,80.6843
2023-02-07T13:46:36.406Z,78.62895
2023-02-07T13:51:38.141Z,75.52131
2023-02-07T13:56:39.806Z,76.56842
2023-02-07T14:01:41.533Z,75.73085
2023-02-07T14:06:43.214Z,73.56895
2023-02-07T14:11:44.916Z,75.56903
2023-02-07T14:16:46.601Z,75.0233
2023-02-07T14:21:48.266Z,76.53012
2023-02-07T14:26:49.880Z,75.29018
2023-02-07T14:31:51.724Z,75.94848
2023-02-07T14:36:53.513Z,75.53442
2023-02-07T14:41:55.127Z,73.47222
2023-02-07T14:46:56.789Z,74.3333
2023-02-07T14:51:58.391Z,75.27674
2023-02-07T14:57:00.143Z,76.19135
2023-02-07T15:02:01.869Z,75.08914
2023-02-07T15:07:03.461Z,73.91165
2023-02-07T15:12:10.788Z,73.35568
2023-02-07T15:17:17.671Z,74.9965
2023-02-07T15:22:25.472Z,74.48913
2023-02-07T15:27:28.024Z,74.75147
2023-02-07T15:32:29.804Z,75.74629
2023-02-07T15:37:31.743Z,75.52036
2023-02-07T15:42:33.452Z,74.39711
2023-02-07T15:47:35.288Z,77.05304
2023-02-07T15:52:36.926Z,78.00862
2023-02-07T15:57:38.609Z,81.08539
2023-02-07T16:02:40.343Z,80.68239
2023-02-07T16:07:42.033Z,77.75446
2023-02-07T16:12:43.879Z,75.12479
2023-02-07T16:17:45.505Z,79.2298
2023-02-07T16:22:47.265Z,80.09322
2023-02-07T16:27:48.987Z,78.25065
2023-02-07T16:32:50.797Z,76.13764
2023-02-07T16:37:52.485Z,76.64769
2023-02-07T16:42:54.218Z,75.74956
2023-02-07T16:47:55.870Z,74.46265
2023-02-07T16:52:57.512Z,74.1935
2023-02-07T16:57:59.228Z,75.74446
2023-02-07T17:03:00.828Z,75.56366
2023-02-07T17:08:02.428Z,77.84884
2023-02-07T17:13:04.034Z,75.77907
2023-02-07T17:18:05.718Z,74.49029
2023-02-07T17:23:07.562Z,74.83923
2023-02-07T17:28:09.354Z,76.18273
2023-02-07T17:33:11.006Z,74.25286
2023-02-07T17:38:12.727Z,74.37085
2023-02-07T17:43:14.643Z,76.26941
2023-02-07T17:48:16.260Z,75.3169
2023-02-07T17:53:17.979Z,76.23193
2023-02-07T17:58:19.694Z,73.65546
2023-02-07T18:03:21.415Z,76.13021
2023-02-07T18:08:23.066Z,78.44762
2023-02-07T18:13:24.694Z,77.23767
2023-02-07T18:18:26.449Z,78.64129
2023-02-07T18:23:28.163Z,78.90247
2023-02-07T18:28:29.764Z,78.64794
2023-02-07T18:33:31.541Z,83.4471
2023-02-07T18:38:33.203Z,81.00923
2023-02-07T18:43:34.843Z,80.88448
2023-02-07T18:48:36.509Z,81.12236
2023-02-07T18:53:38.169Z,81.01563
2023-02-07T18:58:39.805Z,79.0613
2023-02-07T19:03:41.489Z,84.45959
2023-02-07T19:08:43.157Z,82.88543
2023-02-07T19:13:44.837Z,81.60319
2023-02-07T19:18:46.728Z,83.09619
2023-02-07T19:23:48.398Z,82.3266
2023-02-07T19:28:50.059Z,84.37541
2023-02-07T19:33:51.698Z,82.53825
2023-02-07T19:38:53.311Z,80.98932
2023-02-07T19:43:55.004Z,77.55789
2023-02-07T19:48:56.748Z,81.57576
2023-02-07T19:53:58.597Z,84.48699
2023-02-07T19:59:00.220Z,83.70977
2023-02-07T20:04:02.038Z,84.43506
2023-02-07T20:09:03.699Z,85.30809
2023-02-07T20:14:05.538Z,83.16176
2023-02-07T20:19:07.267Z,83.15452
2023-02-07T20:24:08.877Z,79.64547
2023-02-07T20:29:10.559Z,83.49845
2023-02-07T20:34:12.252Z,80.81441
2023-02-07T20:39:13.898Z,81.69762
2023-02-07T20:44:15.553Z,82.02523
2023-02-07T20:49:17.757Z,83.80606
2023-02-07T20:54:19.721Z,84.7204
2023-02-07T20:59:21.754Z,82.49469
2023-02-07T21:04:23.846Z,83.3625
2023-02-07T21:09:25.997Z,82.72395
2023-02-07T21:14:27.690Z,83.19969
2023-02-07T21:19:29.367Z,84.77391
2023-02-07T21:24:31.115Z,83.91636
2023-02-07T21:29:32.715Z,85.48588
2023-02-07T21:34:34.357Z,83.18221
2023-02-07T21:39:36.130Z,82.80034
2023-02-07T21:44:37.816Z,81.97461
2023-02-07T21:49:39.431Z,85.26333
2023-02-07T21:54:41.107Z,81.9703
2023-02-07T21:59:42.788Z,85.23464
2023-02-07T22:04:44.685Z,82.1165
2023-02-07T22:09:46.383Z,80.98469
2023-02-07T22:14:48.040Z,82.38301
2023-02-07T22:19:49.787Z,84.77494
2023-02-07T22:24:51.619Z,86.88595
2023-02-07T22:29:53.231Z,84.96923
2023-02-07T22:34:54.961Z,85.08159
2023-02-07T22:39:56.604Z,87.00821
2023-02-07T22:44:58.499Z,88.69341
2023-02-07T22:50:00.204Z,87.99121
2023-02-07T22:55:02.119Z,87.34364
2023-02-07T23:00:03.759Z,87.22387
2023-02-07T23:05:05.461Z,84.12441
2023-02-07T23:10:07.404Z,83.25958
2023-02-07T23:15:09.164Z,82.15592
2023-02-07T23:20:10.826Z,86.49314
2023-02-07T23:25:12.375Z,85.75279
2023-02-07T23:30:14.058Z,83.23706
2023-02-07T23:35:15.711Z,86.49777
2023-02-07T23:40:17.373Z,86.03097
2023-02-07T23:45:19.135Z,85.04112
2023-02-07T23:50:20.775Z,83.72505
2023-02-07T23:55:22.412Z,86.95305
